Terminal Aerodrome Forecast
Issued by NWS Des Moines, IA

Home | Current Version | Previous Version | Text Only | Print | Product List | Glossary On
Versions: 1 2 3 4 5 6 7 8 9 10 11 12 13 14 15 16 17 18 19 20 21 22 23 24 25 26 27 28
000
FTUS43 KDMX 231720
TAFALO
TAF
KALO 231720Z 2318/2418 20007KT P6SM SCT008 BKN015
      TEMPO 2318/2319 4SM BR BKN008
     FM231900 24006KT P6SM SKC
     FM240000 19003KT P6SM SKC=

USA.gov is the U.S. government's official web portal to all federal, state and local government web resources and services.